FQPB

Pemba Airport

Pemba / Porto Amelia, Mozambique
METAR FQPB 190700Z 22015KT 9999 FEW020 BKN100 24/16 Q1022
Observed Flight Rules
Jul-19 @ 07:00 UTC (47 minutes ago) Visual Flight Rules
Wind Visibility Clouds
220° at 15 knots 10,000+ meters
  • Few at 2,000' AGL
  • Broken at 10,000' AGL
Temperatures Readings
Current 24°C / 75°F
Dewpoint 16°C / 61°F
Humidity 61%
Altimeter 30.18" Hg
Pressure 1022 hPa
Elevation 50
METAR FQPB 190700Z 22015KT 9999 FEW020 BKN100 24/16 Q1022
Observed Flight Rules
Jul-19 @ 07:00 UTC
(47 minutes ago)
VFR
Wind Visibility
220° at 15 knots 10,000+ meters
Clouds
  • Few at 2,000' AGL
  • Broken at 10,000' AGL
Temperature Dewpoint
24°C / 75°F 16°C / 61°F
Humidity Altimeter Pressure
61% 30.18" Hg 1022 hPa